sensor_id;sensor_type;location;lat;lon;timestamp;P1;durP1;ratioP1;P2;durP2;ratioP2
18526;SDS011;9393;42.158;24.748;2023-05-07T00:00:24;7.27;;;4.60;;
18526;SDS011;9393;42.158;24.748;2023-05-07T00:03:28;7.03;;;4.27;;
18526;SDS011;9393;42.158;24.748;2023-05-07T00:06:33;8.27;;;4.73;;
18526;SDS011;9393;42.158;24.748;2023-05-07T00:09:37;7.27;;;4.17;;
18526;SDS011;9393;42.158;24.748;2023-05-07T00:12:41;6.50;;;4.60;;
18526;SDS011;9393;42.158;24.748;2023-05-07T00:15:45;7.43;;;4.77;;
18526;SDS011;9393;42.158;24.748;2023-05-07T00:18:49;7.33;;;4.37;;
18526;SDS011;9393;42.158;24.748;2023-05-07T00:21:54;6.73;;;4.67;;
18526;SDS011;9393;42.158;24.748;2023-05-07T00:24:58;7.43;;;4.70;;
18526;SDS011;9393;42.158;24.748;2023-05-07T00:28:02;7.50;;;4.80;;
18526;SDS011;9393;42.158;24.748;2023-05-07T00:31:06;5.37;;;4.23;;
18526;SDS011;9393;42.158;24.748;2023-05-07T00:34:10;8.80;;;4.80;;
18526;SDS011;9393;42.158;24.748;2023-05-07T00:37:16;14.43;;;5.57;;
18526;SDS011;9393;42.158;24.748;2023-05-07T00:40:19;5.93;;;4.40;;
18526;SDS011;9393;42.158;24.748;2023-05-07T00:43:23;6.60;;;4.77;;
18526;SDS011;9393;42.158;24.748;2023-05-07T00:46:27;7.63;;;4.40;;
18526;SDS011;9393;42.158;24.748;2023-05-07T00:49:37;11.07;;;4.90;;
18526;SDS011;9393;42.158;24.748;2023-05-07T00:52:44;6.63;;;4.67;;
18526;SDS011;9393;42.158;24.748;2023-05-07T00:55:48;11.07;;;5.90;;
18526;SDS011;9393;42.158;24.748;2023-05-07T00:58:52;8.13;;;5.57;;
18526;SDS011;9393;42.158;24.748;2023-05-07T01:01:56;8.70;;;5.90;;
18526;SDS011;9393;42.158;24.748;2023-05-07T01:05:00;10.73;;;6.40;;
18526;SDS011;9393;42.158;24.748;2023-05-07T01:08:07;8.93;;;5.80;;
18526;SDS011;9393;42.158;24.748;2023-05-07T01:11:10;14.10;;;6.07;;
18526;SDS011;9393;42.158;24.748;2023-05-07T01:14:15;8.73;;;5.10;;
18526;SDS011;9393;42.158;24.748;2023-05-07T01:17:19;7.53;;;5.40;;
18526;SDS011;9393;42.158;24.748;2023-05-07T01:20:23;6.60;;;4.93;;
18526;SDS011;9393;42.158;24.748;2023-05-07T01:23:31;8.77;;;5.77;;
18526;SDS011;9393;42.158;24.748;2023-05-07T01:26:37;8.73;;;5.50;;
18526;SDS011;9393;42.158;24.748;2023-05-07T01:29:42;6.93;;;5.10;;
18526;SDS011;9393;42.158;24.748;2023-05-07T01:32:48;8.63;;;5.83;;
18526;SDS011;9393;42.158;24.748;2023-05-07T01:35:54;14.03;;;5.97;;
18526;SDS011;9393;42.158;24.748;2023-05-07T01:39:01;8.70;;;5.93;;
18526;SDS011;9393;42.158;24.748;2023-05-07T01:42:06;11.53;;;6.37;;
18526;SDS011;9393;42.158;24.748;2023-05-07T01:45:10;11.17;;;7.63;;
18526;SDS011;9393;42.158;24.748;2023-05-07T01:48:14;17.20;;;10.07;;
18526;SDS011;9393;42.158;24.748;2023-05-07T01:51:18;14.13;;;8.80;;
18526;SDS011;9393;42.158;24.748;2023-05-07T01:54:26;14.73;;;8.87;;
18526;SDS011;9393;42.158;24.748;2023-05-07T01:57:32;12.87;;;8.63;;
18526;SDS011;9393;42.158;24.748;2023-05-07T02:00:36;13.97;;;8.60;;
18526;SDS011;9393;42.158;24.748;2023-05-07T02:03:41;12.17;;;8.37;;
18526;SDS011;9393;42.158;24.748;2023-05-07T02:06:53;15.70;;;8.43;;
18526;SDS011;9393;42.158;24.748;2023-05-07T02:09:59;13.90;;;8.07;;
18526;SDS011;9393;42.158;24.748;2023-05-07T02:13:03;10.20;;;6.30;;
18526;SDS011;9393;42.158;24.748;2023-05-07T02:16:07;10.23;;;7.23;;
18526;SDS011;9393;42.158;24.748;2023-05-07T02:19:12;7.40;;;5.97;;
18526;SDS011;9393;42.158;24.748;2023-05-07T02:22:16;9.23;;;5.50;;
18526;SDS011;9393;42.158;24.748;2023-05-07T02:25:21;7.00;;;5.40;;
18526;SDS011;9393;42.158;24.748;2023-05-07T02:28:25;7.87;;;5.80;;
18526;SDS011;9393;42.158;24.748;2023-05-07T02:31:33;8.23;;;6.13;;
18526;SDS011;9393;42.158;24.748;2023-05-07T02:34:37;9.93;;;6.33;;
18526;SDS011;9393;42.158;24.748;2023-05-07T02:37:41;8.83;;;5.33;;
18526;SDS011;9393;42.158;24.748;2023-05-07T02:40:46;9.33;;;5.67;;
18526;SDS011;9393;42.158;24.748;2023-05-07T02:43:50;7.57;;;5.97;;
18526;SDS011;9393;42.158;24.748;2023-05-07T02:46:54;7.80;;;6.13;;
18526;SDS011;9393;42.158;24.748;2023-05-07T02:49:59;8.03;;;5.43;;
18526;SDS011;9393;42.158;24.748;2023-05-07T02:53:03;10.53;;;6.13;;
18526;SDS011;9393;42.158;24.748;2023-05-07T02:56:09;8.60;;;6.23;;
18526;SDS011;9393;42.158;24.748;2023-05-07T02:59:12;9.03;;;6.00;;
18526;SDS011;9393;42.158;24.748;2023-05-07T03:02:17;9.50;;;5.83;;
18526;SDS011;9393;42.158;24.748;2023-05-07T03:05:20;8.97;;;5.77;;
18526;SDS011;9393;42.158;24.748;2023-05-07T03:08:24;10.03;;;5.90;;
18526;SDS011;9393;42.158;24.748;2023-05-07T03:11:29;9.60;;;6.13;;
18526;SDS011;9393;42.158;24.748;2023-05-07T03:14:33;9.53;;;6.07;;
18526;SDS011;9393;42.158;24.748;2023-05-07T03:17:37;9.83;;;5.90;;
18526;SDS011;9393;42.158;24.748;2023-05-07T03:20:40;11.03;;;7.60;;
18526;SDS011;9393;42.158;24.748;2023-05-07T03:23:44;11.07;;;8.50;;
18526;SDS011;9393;42.158;24.748;2023-05-07T03:26:49;14.00;;;7.40;;
18526;SDS011;9393;42.158;24.748;2023-05-07T03:29:53;12.50;;;7.70;;
18526;SDS011;9393;42.158;24.748;2023-05-07T03:32:57;18.80;;;8.50;;
18526;SDS011;9393;42.158;24.748;2023-05-07T03:36:02;13.37;;;8.27;;
18526;SDS011;9393;42.158;24.748;2023-05-07T03:39:06;11.67;;;7.77;;
18526;SDS011;9393;42.158;24.748;2023-05-07T03:42:15;12.97;;;7.60;;
18526;SDS011;9393;42.158;24.748;2023-05-07T03:45:22;9.43;;;6.97;;
18526;SDS011;9393;42.158;24.748;2023-05-07T03:48:34;11.27;;;7.43;;
18526;SDS011;9393;42.158;24.748;2023-05-07T03:51:39;10.73;;;7.47;;
18526;SDS011;9393;42.158;24.748;2023-05-07T03:54:42;10.70;;;6.97;;
18526;SDS011;9393;42.158;24.748;2023-05-07T03:57:51;9.03;;;6.70;;
18526;SDS011;9393;42.158;24.748;2023-05-07T04:00:55;10.57;;;7.03;;
18526;SDS011;9393;42.158;24.748;2023-05-07T04:04:02;12.93;;;8.00;;
18526;SDS011;9393;42.158;24.748;2023-05-07T04:07:08;10.77;;;7.10;;
18526;SDS011;9393;42.158;24.748;2023-05-07T04:10:16;10.00;;;6.97;;
18526;SDS011;9393;42.158;24.748;2023-05-07T04:13:24;9.07;;;6.87;;
18526;SDS011;9393;42.158;24.748;2023-05-07T04:16:29;11.50;;;7.53;;
18526;SDS011;9393;42.158;24.748;2023-05-07T04:19:33;11.70;;;7.60;;
18526;SDS011;9393;42.158;24.748;2023-05-07T04:22:37;12.80;;;8.60;;
18526;SDS011;9393;42.158;24.748;2023-05-07T04:25:41;10.50;;;7.83;;
18526;SDS011;9393;42.158;24.748;2023-05-07T04:28:58;12.87;;;8.20;;
18526;SDS011;9393;42.158;24.748;2023-05-07T04:32:06;9.83;;;8.20;;
18526;SDS011;9393;42.158;24.748;2023-05-07T04:35:13;13.93;;;8.13;;
18526;SDS011;9393;42.158;24.748;2023-05-07T04:38:18;10.57;;;7.73;;
18526;SDS011;9393;42.158;24.748;2023-05-07T04:41:24;10.73;;;8.30;;
18526;SDS011;9393;42.158;24.748;2023-05-07T04:44:30;9.07;;;7.60;;
18526;SDS011;9393;42.158;24.748;2023-05-07T04:47:34;10.13;;;8.17;;
18526;SDS011;9393;42.158;24.748;2023-05-07T04:50:38;11.60;;;8.40;;
18526;SDS011;9393;42.158;24.748;2023-05-07T04:53:44;11.13;;;8.30;;
18526;SDS011;9393;42.158;24.748;2023-05-07T04:56:48;10.53;;;7.87;;
18526;SDS011;9393;42.158;24.748;2023-05-07T04:59:53;10.37;;;7.90;;
18526;SDS011;9393;42.158;24.748;2023-05-07T05:02:57;9.97;;;7.23;;
18526;SDS011;9393;42.158;24.748;2023-05-07T05:06:03;8.53;;;7.57;;
18526;SDS011;9393;42.158;24.748;2023-05-07T05:09:08;12.00;;;7.47;;
18526;SDS011;9393;42.158;24.748;2023-05-07T05:12:14;11.70;;;8.17;;
18526;SDS011;9393;42.158;24.748;2023-05-07T05:15:20;8.80;;;7.67;;
18526;SDS011;9393;42.158;24.748;2023-05-07T05:18:24;12.80;;;7.93;;
18526;SDS011;9393;42.158;24.748;2023-05-07T05:21:28;12.27;;;8.07;;
18526;SDS011;9393;42.158;24.748;2023-05-07T05:24:37;14.00;;;7.87;;
18526;SDS011;9393;42.158;24.748;2023-05-07T05:27:42;10.00;;;7.80;;
18526;SDS011;9393;42.158;24.748;2023-05-07T05:30:48;12.17;;;7.37;;
18526;SDS011;9393;42.158;24.748;2023-05-07T05:33:53;10.63;;;7.83;;
18526;SDS011;9393;42.158;24.748;2023-05-07T05:36:56;10.57;;;7.53;;
18526;SDS011;9393;42.158;24.748;2023-05-07T05:40:03;11.93;;;8.07;;
18526;SDS011;9393;42.158;24.748;2023-05-07T05:43:07;10.13;;;7.43;;
18526;SDS011;9393;42.158;24.748;2023-05-07T05:46:14;9.03;;;7.43;;
18526;SDS011;9393;42.158;24.748;2023-05-07T05:49:18;13.70;;;8.57;;
18526;SDS011;9393;42.158;24.748;2023-05-07T05:52:23;15.60;;;9.83;;
18526;SDS011;9393;42.158;24.748;2023-05-07T05:55:29;12.53;;;8.03;;
18526;SDS011;9393;42.158;24.748;2023-05-07T05:58:34;11.40;;;7.37;;
18526;SDS011;9393;42.158;24.748;2023-05-07T06:01:42;15.82;;;9.07;;
18526;SDS011;9393;42.158;24.748;2023-05-07T06:04:46;9.75;;;6.82;;
18526;SDS011;9393;42.158;24.748;2023-05-07T06:07:53;10.50;;;6.87;;
18526;SDS011;9393;42.158;24.748;2023-05-07T06:10:57;17.00;;;8.57;;
18526;SDS011;9393;42.158;24.748;2023-05-07T06:14:05;9.50;;;8.00;;
18526;SDS011;9393;42.158;24.748;2023-05-07T06:17:11;12.93;;;8.15;;
18526;SDS011;9393;42.158;24.748;2023-05-07T06:20:15;14.88;;;7.72;;
18526;SDS011;9393;42.158;24.748;2023-05-07T06:23:19;10.30;;;7.85;;
18526;SDS011;9393;42.158;24.748;2023-05-07T06:26:23;12.93;;;6.97;;
18526;SDS011;9393;42.158;24.748;2023-05-07T06:29:27;11.60;;;7.47;;
18526;SDS011;9393;42.158;24.748;2023-05-07T06:32:36;15.38;;;8.25;;
18526;SDS011;9393;42.158;24.748;2023-05-07T06:35:40;11.20;;;7.82;;
18526;SDS011;9393;42.158;24.748;2023-05-07T06:38:44;9.55;;;7.57;;
18526;SDS011;9393;42.158;24.748;2023-05-07T06:41:49;9.55;;;7.55;;
18526;SDS011;9393;42.158;24.748;2023-05-07T06:45:01;9.95;;;7.90;;
18526;SDS011;9393;42.158;24.748;2023-05-07T06:48:06;13.52;;;7.80;;
18526;SDS011;9393;42.158;24.748;2023-05-07T06:51:20;10.35;;;6.95;;
18526;SDS011;9393;42.158;24.748;2023-05-07T06:54:24;8.68;;;7.65;;
18526;SDS011;9393;42.158;24.748;2023-05-07T06:57:29;9.10;;;6.72;;
18526;SDS011;9393;42.158;24.748;2023-05-07T07:00:33;8.40;;;6.63;;
18526;SDS011;9393;42.158;24.748;2023-05-07T07:03:38;8.73;;;6.43;;
18526;SDS011;9393;42.158;24.748;2023-05-07T07:06:42;8.68;;;6.53;;
18526;SDS011;9393;42.158;24.748;2023-05-07T07:09:49;8.57;;;6.43;;
18526;SDS011;9393;42.158;24.748;2023-05-07T07:12:54;11.02;;;6.63;;
18526;SDS011;9393;42.158;24.748;2023-05-07T07:15:58;11.10;;;7.10;;
18526;SDS011;9393;42.158;24.748;2023-05-07T07:19:05;9.18;;;6.93;;
18526;SDS011;9393;42.158;24.748;2023-05-07T07:22:09;10.27;;;7.00;;
18526;SDS011;9393;42.158;24.748;2023-05-07T07:25:13;11.35;;;6.82;;
18526;SDS011;9393;42.158;24.748;2023-05-07T07:28:17;12.30;;;6.45;;
18526;SDS011;9393;42.158;24.748;2023-05-07T07:31:24;7.85;;;6.13;;
18526;SDS011;9393;42.158;24.748;2023-05-07T07:34:29;9.48;;;6.25;;
18526;SDS011;9393;42.158;24.748;2023-05-07T07:37:35;8.95;;;7.07;;
18526;SDS011;9393;42.158;24.748;2023-05-07T07:40:39;8.38;;;6.72;;
18526;SDS011;9393;42.158;24.748;2023-05-07T07:43:43;9.70;;;6.57;;
18526;SDS011;9393;42.158;24.748;2023-05-07T07:46:53;9.65;;;6.68;;
18526;SDS011;9393;42.158;24.748;2023-05-07T07:50:01;9.52;;;6.75;;
18526;SDS011;9393;42.158;24.748;2023-05-07T07:53:05;7.75;;;6.15;;
18526;SDS011;9393;42.158;24.748;2023-05-07T07:56:09;9.82;;;6.60;;
18526;SDS011;9393;42.158;24.748;2023-05-07T07:59:13;10.73;;;7.40;;
18526;SDS011;9393;42.158;24.748;2023-05-07T08:02:22;10.30;;;6.65;;
18526;SDS011;9393;42.158;24.748;2023-05-07T08:05:29;12.15;;;7.55;;
18526;SDS011;9393;42.158;24.748;2023-05-07T08:08:34;13.40;;;7.22;;
18526;SDS011;9393;42.158;24.748;2023-05-07T08:11:38;9.82;;;7.05;;
18526;SDS011;9393;42.158;24.748;2023-05-07T08:14:42;9.20;;;6.10;;
18526;SDS011;9393;42.158;24.748;2023-05-07T08:17:46;11.50;;;6.32;;
18526;SDS011;9393;42.158;24.748;2023-05-07T08:20:51;10.18;;;5.22;;
18526;SDS011;9393;42.158;24.748;2023-05-07T08:23:59;10.45;;;6.03;;
18526;SDS011;9393;42.158;24.748;2023-05-07T08:27:03;9.68;;;6.20;;
18526;SDS011;9393;42.158;24.748;2023-05-07T08:30:08;7.30;;;4.55;;
18526;SDS011;9393;42.158;24.748;2023-05-07T08:33:14;7.53;;;5.45;;
18526;SDS011;9393;42.158;24.748;2023-05-07T08:36:19;5.93;;;4.68;;
18526;SDS011;9393;42.158;24.748;2023-05-07T08:39:23;7.30;;;5.35;;
18526;SDS011;9393;42.158;24.748;2023-05-07T08:42:29;9.38;;;4.95;;
18526;SDS011;9393;42.158;24.748;2023-05-07T08:45:34;12.13;;;5.40;;
18526;SDS011;9393;42.158;24.748;2023-05-07T08:48:38;8.63;;;4.25;;
18526;SDS011;9393;42.158;24.748;2023-05-07T08:51:50;6.20;;;4.47;;
18526;SDS011;9393;42.158;24.748;2023-05-07T08:54:55;9.90;;;3.95;;
18526;SDS011;9393;42.158;24.748;2023-05-07T08:58:00;5.20;;;3.75;;
18526;SDS011;9393;42.158;24.748;2023-05-07T09:01:07;9.93;;;3.92;;
18526;SDS011;9393;42.158;24.748;2023-05-07T09:04:12;8.48;;;4.03;;
18526;SDS011;9393;42.158;24.748;2023-05-07T09:07:20;6.28;;;4.13;;
18526;SDS011;9393;42.158;24.748;2023-05-07T09:10:25;6.38;;;4.00;;
18526;SDS011;9393;42.158;24.748;2023-05-07T09:13:29;11.70;;;4.70;;
18526;SDS011;9393;42.158;24.748;2023-05-07T09:16:35;7.38;;;4.28;;
18526;SDS011;9393;42.158;24.748;2023-05-07T09:19:39;5.70;;;3.50;;
18526;SDS011;9393;42.158;24.748;2023-05-07T09:22:45;3.78;;;3.20;;
18526;SDS011;9393;42.158;24.748;2023-05-07T09:25:52;4.95;;;3.40;;
18526;SDS011;9393;42.158;24.748;2023-05-07T09:29:07;4.65;;;3.22;;
18526;SDS011;9393;42.158;24.748;2023-05-07T09:32:11;7.55;;;3.20;;
18526;SDS011;9393;42.158;24.748;2023-05-07T09:35:15;6.55;;;3.15;;
18526;SDS011;9393;42.158;24.748;2023-05-07T09:38:26;3.55;;;2.42;;
18526;SDS011;9393;42.158;24.748;2023-05-07T09:41:32;5.05;;;3.08;;
18526;SDS011;9393;42.158;24.748;2023-05-07T09:44:58;8.48;;;3.60;;
18526;SDS011;9393;42.158;24.748;2023-05-07T09:48:09;6.28;;;3.50;;
18526;SDS011;9393;42.158;24.748;2023-05-07T09:51:18;7.47;;;3.97;;
18526;SDS011;9393;42.158;24.748;2023-05-07T09:54:27;6.47;;;4.00;;
18526;SDS011;9393;42.158;24.748;2023-05-07T09:57:33;4.20;;;3.22;;
18526;SDS011;9393;42.158;24.748;2023-05-07T10:00:41;5.93;;;3.22;;
18526;SDS011;9393;42.158;24.748;2023-05-07T10:03:49;6.03;;;3.63;;
18526;SDS011;9393;42.158;24.748;2023-05-07T10:06:55;6.57;;;3.30;;
18526;SDS011;9393;42.158;24.748;2023-05-07T10:10:02;8.02;;;3.63;;
18526;SDS011;9393;42.158;24.748;2023-05-07T10:13:12;6.22;;;2.97;;
18526;SDS011;9393;42.158;24.748;2023-05-07T10:16:21;4.03;;;3.30;;
18526;SDS011;9393;42.158;24.748;2023-05-07T10:19:26;6.97;;;3.70;;
18526;SDS011;9393;42.158;24.748;2023-05-07T10:22:32;5.18;;;3.50;;
18526;SDS011;9393;42.158;24.748;2023-05-07T10:25:43;4.75;;;2.90;;
18526;SDS011;9393;42.158;24.748;2023-05-07T10:28:56;4.20;;;3.17;;
18526;SDS011;9393;42.158;24.748;2023-05-07T10:32:12;4.28;;;3.05;;
18526;SDS011;9393;42.158;24.748;2023-05-07T10:35:31;6.40;;;3.55;;
18526;SDS011;9393;42.158;24.748;2023-05-07T10:38:39;10.10;;;3.50;;
18526;SDS011;9393;42.158;24.748;2023-05-07T10:41:45;5.13;;;3.22;;
18526;SDS011;9393;42.158;24.748;2023-05-07T10:44:51;4.38;;;3.30;;
18526;SDS011;9393;42.158;24.748;2023-05-07T10:48:10;3.30;;;3.00;;
18526;SDS011;9393;42.158;24.748;2023-05-07T10:51:25;2.70;;;2.50;;
18526;SDS011;9393;42.158;24.748;2023-05-07T10:54:36;2.72;;;2.53;;
18526;SDS011;9393;42.158;24.748;2023-05-07T10:57:46;4.90;;;2.67;;
18526;SDS011;9393;42.158;24.748;2023-05-07T11:00:56;6.15;;;2.75;;
18526;SDS011;9393;42.158;24.748;2023-05-07T11:04:12;4.93;;;3.03;;
18526;SDS011;9393;42.158;24.748;2023-05-07T11:07:32;3.55;;;2.60;;
18526;SDS011;9393;42.158;24.748;2023-05-07T11:10:48;4.60;;;2.83;;
18526;SDS011;9393;42.158;24.748;2023-05-07T11:14:26;5.15;;;2.70;;
18526;SDS011;9393;42.158;24.748;2023-05-07T11:18:06;6.10;;;2.90;;
18526;SDS011;9393;42.158;24.748;2023-05-07T11:21:14;8.10;;;3.25;;
18526;SDS011;9393;42.158;24.748;2023-05-07T11:24:59;3.53;;;2.92;;
18526;SDS011;9393;42.158;24.748;2023-05-07T11:28:06;5.18;;;3.05;;
18526;SDS011;9393;42.158;24.748;2023-05-07T11:31:21;3.67;;;2.75;;
18526;SDS011;9393;42.158;24.748;2023-05-07T11:34:29;4.55;;;3.00;;
18526;SDS011;9393;42.158;24.748;2023-05-07T11:37:34;6.13;;;2.47;;
18526;SDS011;9393;42.158;24.748;2023-05-07T11:40:48;4.22;;;2.75;;
18526;SDS011;9393;42.158;24.748;2023-05-07T11:43:56;3.92;;;2.80;;
18526;SDS011;9393;42.158;24.748;2023-05-07T11:47:03;4.75;;;3.38;;
18526;SDS011;9393;42.158;24.748;2023-05-07T11:50:07;4.80;;;3.00;;
18526;SDS011;9393;42.158;24.748;2023-05-07T11:53:12;5.88;;;3.00;;
18526;SDS011;9393;42.158;24.748;2023-05-07T11:56:16;4.50;;;3.00;;
18526;SDS011;9393;42.158;24.748;2023-05-07T11:59:21;6.60;;;3.40;;
18526;SDS011;9393;42.158;24.748;2023-05-07T12:02:27;4.85;;;2.90;;
18526;SDS011;9393;42.158;24.748;2023-05-07T12:05:31;4.07;;;2.72;;
18526;SDS011;9393;42.158;24.748;2023-05-07T12:08:36;3.47;;;2.88;;
18526;SDS011;9393;42.158;24.748;2023-05-07T12:11:40;4.50;;;3.22;;
18526;SDS011;9393;42.158;24.748;2023-05-07T12:14:49;5.28;;;2.70;;
18526;SDS011;9393;42.158;24.748;2023-05-07T12:17:54;5.68;;;3.30;;
18526;SDS011;9393;42.158;24.748;2023-05-07T12:20:58;3.45;;;2.72;;
18526;SDS011;9393;42.158;24.748;2023-05-07T12:24:03;4.70;;;3.22;;
18526;SDS011;9393;42.158;24.748;2023-05-07T12:27:08;5.40;;;2.92;;
18526;SDS011;9393;42.158;24.748;2023-05-07T12:30:13;8.95;;;3.00;;
18526;SDS011;9393;42.158;24.748;2023-05-07T12:33:18;5.60;;;2.80;;
18526;SDS011;9393;42.158;24.748;2023-05-07T12:36:26;3.67;;;2.80;;
18526;SDS011;9393;42.158;24.748;2023-05-07T12:39:44;3.97;;;3.20;;
18526;SDS011;9393;42.158;24.748;2023-05-07T12:42:48;4.38;;;3.38;;
18526;SDS011;9393;42.158;24.748;2023-05-07T12:46:00;4.60;;;2.97;;
18526;SDS011;9393;42.158;24.748;2023-05-07T12:49:07;3.25;;;2.85;;
18526;SDS011;9393;42.158;24.748;2023-05-07T12:52:12;4.70;;;3.10;;
18526;SDS011;9393;42.158;24.748;2023-05-07T12:55:16;6.05;;;2.70;;
18526;SDS011;9393;42.158;24.748;2023-05-07T12:58:24;5.75;;;2.80;;
18526;SDS011;9393;42.158;24.748;2023-05-07T13:01:29;7.32;;;3.08;;
18526;SDS011;9393;42.158;24.748;2023-05-07T13:04:35;3.30;;;2.70;;
18526;SDS011;9393;42.158;24.748;2023-05-07T13:07:39;5.63;;;2.95;;
18526;SDS011;9393;42.158;24.748;2023-05-07T13:10:43;4.22;;;2.80;;
18526;SDS011;9393;42.158;24.748;2023-05-07T13:13:47;3.45;;;2.63;;
18526;SDS011;9393;42.158;24.748;2023-05-07T13:16:51;4.88;;;2.90;;
18526;SDS011;9393;42.158;24.748;2023-05-07T13:19:56;5.70;;;2.85;;
18526;SDS011;9393;42.158;24.748;2023-05-07T13:22:59;4.90;;;2.72;;
18526;SDS011;9393;42.158;24.748;2023-05-07T13:26:06;3.58;;;2.88;;
18526;SDS011;9393;42.158;24.748;2023-05-07T13:29:27;5.00;;;3.25;;
18526;SDS011;9393;42.158;24.748;2023-05-07T13:32:32;8.32;;;2.80;;
18526;SDS011;9393;42.158;24.748;2023-05-07T13:35:37;4.47;;;2.90;;
18526;SDS011;9393;42.158;24.748;2023-05-07T13:38:41;6.50;;;3.10;;
18526;SDS011;9393;42.158;24.748;2023-05-07T13:41:45;4.95;;;2.67;;
18526;SDS011;9393;42.158;24.748;2023-05-07T13:44:49;2.67;;;2.28;;
18526;SDS011;9393;42.158;24.748;2023-05-07T13:47:53;4.07;;;2.22;;
18526;SDS011;9393;42.158;24.748;2023-05-07T13:50:59;3.22;;;2.30;;
18526;SDS011;9393;42.158;24.748;2023-05-07T13:54:03;5.05;;;2.42;;
18526;SDS011;9393;42.158;24.748;2023-05-07T13:57:07;2.42;;;2.10;;
18526;SDS011;9393;42.158;24.748;2023-05-07T14:00:11;5.05;;;2.30;;
18526;SDS011;9393;42.158;24.748;2023-05-07T14:03:16;3.08;;;2.60;;
18526;SDS011;9393;42.158;24.748;2023-05-07T14:06:23;3.83;;;2.28;;
18526;SDS011;9393;42.158;24.748;2023-05-07T14:09:27;20.98;;;2.63;;
18526;SDS011;9393;42.158;24.748;2023-05-07T14:12:31;3.38;;;2.10;;
18526;SDS011;9393;42.158;24.748;2023-05-07T14:15:35;3.22;;;2.17;;
18526;SDS011;9393;42.158;24.748;2023-05-07T14:18:39;2.78;;;2.08;;
18526;SDS011;9393;42.158;24.748;2023-05-07T14:21:44;3.92;;;2.17;;
18526;SDS011;9393;42.158;24.748;2023-05-07T14:24:48;3.15;;;1.92;;
18526;SDS011;9393;42.158;24.748;2023-05-07T14:28:12;4.00;;;2.00;;
18526;SDS011;9393;42.158;24.748;2023-05-07T14:31:16;4.72;;;2.10;;
18526;SDS011;9393;42.158;24.748;2023-05-07T14:34:20;4.95;;;2.00;;
18526;SDS011;9393;42.158;24.748;2023-05-07T14:37:25;3.42;;;2.10;;
18526;SDS011;9393;42.158;24.748;2023-05-07T14:40:30;4.07;;;2.40;;
18526;SDS011;9393;42.158;24.748;2023-05-07T14:43:34;3.75;;;2.30;;
18526;SDS011;9393;42.158;24.748;2023-05-07T14:46:37;2.75;;;2.20;;
18526;SDS011;9393;42.158;24.748;2023-05-07T14:49:41;4.30;;;2.03;;
18526;SDS011;9393;42.158;24.748;2023-05-07T14:52:46;3.17;;;2.55;;
18526;SDS011;9393;42.158;24.748;2023-05-07T14:55:50;4.45;;;1.83;;
18526;SDS011;9393;42.158;24.748;2023-05-07T14:58:54;2.95;;;1.98;;
18526;SDS011;9393;42.158;24.748;2023-05-07T15:01:58;4.15;;;2.03;;
18526;SDS011;9393;42.158;24.748;2023-05-07T15:05:06;3.85;;;2.50;;
18526;SDS011;9393;42.158;24.748;2023-05-07T15:08:12;5.10;;;2.40;;
18526;SDS011;9393;42.158;24.748;2023-05-07T15:11:16;4.28;;;2.28;;
18526;SDS011;9393;42.158;24.748;2023-05-07T15:14:20;2.80;;;2.00;;
18526;SDS011;9393;42.158;24.748;2023-05-07T15:17:24;3.83;;;2.30;;
18526;SDS011;9393;42.158;24.748;2023-05-07T15:20:28;6.68;;;2.10;;
18526;SDS011;9393;42.158;24.748;2023-05-07T15:23:33;6.78;;;3.10;;
18526;SDS011;9393;42.158;24.748;2023-05-07T15:26:37;2.80;;;2.20;;
18526;SDS011;9393;42.158;24.748;2023-05-07T15:29:41;2.35;;;1.70;;
18526;SDS011;9393;42.158;24.748;2023-05-07T15:32:45;5.32;;;1.90;;
18526;SDS011;9393;42.158;24.748;2023-05-07T15:35:49;3.78;;;2.15;;
18526;SDS011;9393;42.158;24.748;2023-05-07T15:38:54;2.38;;;1.90;;
18526;SDS011;9393;42.158;24.748;2023-05-07T15:41:58;2.67;;;1.80;;
18526;SDS011;9393;42.158;24.748;2023-05-07T15:45:03;4.13;;;2.30;;
18526;SDS011;9393;42.158;24.748;2023-05-07T15:48:08;5.35;;;2.55;;
18526;SDS011;9393;42.158;24.748;2023-05-07T15:51:12;4.45;;;1.73;;
18526;SDS011;9393;42.158;24.748;2023-05-07T15:54:17;3.47;;;2.05;;
18526;SDS011;9393;42.158;24.748;2023-05-07T15:57:22;4.95;;;2.05;;
18526;SDS011;9393;42.158;24.748;2023-05-07T16:00:26;2.55;;;2.05;;
18526;SDS011;9393;42.158;24.748;2023-05-07T16:03:30;3.88;;;2.25;;
18526;SDS011;9393;42.158;24.748;2023-05-07T16:06:35;4.15;;;1.77;;
18526;SDS011;9393;42.158;24.748;2023-05-07T16:09:40;3.22;;;2.17;;
18526;SDS011;9393;42.158;24.748;2023-05-07T16:12:43;3.50;;;2.20;;
18526;SDS011;9393;42.158;24.748;2023-05-07T16:15:47;5.60;;;2.80;;
18526;SDS011;9393;42.158;24.748;2023-05-07T16:18:51;5.78;;;2.10;;
18526;SDS011;9393;42.158;24.748;2023-05-07T16:21:55;3.95;;;1.80;;
18526;SDS011;9393;42.158;24.748;2023-05-07T16:25:00;5.85;;;2.08;;
18526;SDS011;9393;42.158;24.748;2023-05-07T16:28:06;5.60;;;2.33;;
18526;SDS011;9393;42.158;24.748;2023-05-07T16:31:09;6.45;;;2.60;;
18526;SDS011;9393;42.158;24.748;2023-05-07T16:34:13;3.58;;;2.08;;
18526;SDS011;9393;42.158;24.748;2023-05-07T16:37:17;3.42;;;2.25;;
18526;SDS011;9393;42.158;24.748;2023-05-07T16:40:23;5.78;;;2.70;;
18526;SDS011;9393;42.158;24.748;2023-05-07T16:43:28;3.58;;;2.10;;
18526;SDS011;9393;42.158;24.748;2023-05-07T16:46:31;5.07;;;2.17;;
18526;SDS011;9393;42.158;24.748;2023-05-07T16:49:35;4.90;;;2.05;;
18526;SDS011;9393;42.158;24.748;2023-05-07T16:52:39;4.55;;;2.47;;
18526;SDS011;9393;42.158;24.748;2023-05-07T16:55:44;3.42;;;2.17;;
18526;SDS011;9393;42.158;24.748;2023-05-07T16:58:48;4.13;;;2.25;;
18526;SDS011;9393;42.158;24.748;2023-05-07T17:01:52;5.95;;;2.85;;
18526;SDS011;9393;42.158;24.748;2023-05-07T17:04:58;3.47;;;2.63;;
18526;SDS011;9393;42.158;24.748;2023-05-07T17:08:02;3.08;;;2.55;;
18526;SDS011;9393;42.158;24.748;2023-05-07T17:11:07;5.47;;;2.42;;
18526;SDS011;9393;42.158;24.748;2023-05-07T17:14:11;7.50;;;2.35;;
18526;SDS011;9393;42.158;24.748;2023-05-07T17:17:15;5.63;;;2.58;;
18526;SDS011;9393;42.158;24.748;2023-05-07T17:20:20;5.32;;;2.53;;
18526;SDS011;9393;42.158;24.748;2023-05-07T17:23:24;7.07;;;2.42;;
18526;SDS011;9393;42.158;24.748;2023-05-07T17:26:29;6.20;;;2.28;;
18526;SDS011;9393;42.158;24.748;2023-05-07T17:29:36;7.57;;;2.50;;
18526;SDS011;9393;42.158;24.748;2023-05-07T17:32:39;2.72;;;2.15;;
18526;SDS011;9393;42.158;24.748;2023-05-07T17:35:43;9.88;;;2.30;;
18526;SDS011;9393;42.158;24.748;2023-05-07T17:38:47;4.03;;;2.15;;
18526;SDS011;9393;42.158;24.748;2023-05-07T17:41:52;4.72;;;2.17;;
18526;SDS011;9393;42.158;24.748;2023-05-07T17:44:56;4.53;;;2.15;;
18526;SDS011;9393;42.158;24.748;2023-05-07T17:48:00;3.25;;;2.35;;
18526;SDS011;9393;42.158;24.748;2023-05-07T17:51:04;6.07;;;3.33;;
18526;SDS011;9393;42.158;24.748;2023-05-07T17:54:08;5.15;;;3.10;;
18526;SDS011;9393;42.158;24.748;2023-05-07T17:57:13;6.93;;;2.50;;
18526;SDS011;9393;42.158;24.748;2023-05-07T18:00:17;6.78;;;2.40;;
18526;SDS011;9393;42.158;24.748;2023-05-07T18:03:21;8.40;;;2.78;;
18526;SDS011;9393;42.158;24.748;2023-05-07T18:06:26;4.60;;;2.50;;
18526;SDS011;9393;42.158;24.748;2023-05-07T18:09:30;5.20;;;3.15;;
18526;SDS011;9393;42.158;24.748;2023-05-07T18:12:35;5.10;;;2.97;;
18526;SDS011;9393;42.158;24.748;2023-05-07T18:15:39;5.07;;;2.17;;
18526;SDS011;9393;42.158;24.748;2023-05-07T18:18:43;7.97;;;2.83;;
18526;SDS011;9393;42.158;24.748;2023-05-07T18:21:47;6.10;;;2.38;;
18526;SDS011;9393;42.158;24.748;2023-05-07T18:24:51;5.82;;;3.08;;
18526;SDS011;9393;42.158;24.748;2023-05-07T18:27:58;5.78;;;2.38;;
18526;SDS011;9393;42.158;24.748;2023-05-07T18:31:02;4.47;;;2.60;;
18526;SDS011;9393;42.158;24.748;2023-05-07T18:34:06;6.15;;;2.70;;